EW7542 Weather Reports


Display with metric or nautical units.
time (UTC)temp
F
wind
direction
speed
MPH
gust
MPH
rain 1hr
in
rain 24hr
in
rain mn
in
humidity
%
barometer
mb
20200401053027 0 0.0 0.0 0.00 0.00 0.00 1018.0
20200401051701 0 0.0 0.0 0.00 0.00 0.00 1018.0
20200401050047 52 81 0.0 0.0 0.00 0.00 0.00 90 1018.3
20200401044520 53 79 0.0 0.0 0.00 0.00 0.00 91 1018.3
20200401043019 53 79 0.0 0.0 0.00 0.00 0.00 90 1018.4
20200401041532 53 79 0.0 0.0 0.00 0.00 0.00 90 1018.3
20200401040028 54 79 0.0 0.0 0.00 0.00 0.00 88 1018.3
20200401034528 55 79 0.0 0.0 0.00 0.00 0.00 88 1018.3
20200401033042 54 79 0.0 0.0 0.00 0.00 0.00 89 1018.2
20200401031525 54 79 0.0 0.0 0.00 0.00 0.00 89 1018.1
20200401030016 54 79 0.0 0.0 0.00 0.00 0.00 88 1018.1
20200401024528 55 79 0.0 0.0 0.00 0.00 0.00 86 1017.8
20200401023030 56 79 0.0 0.0 0.00 0.00 0.00 85 1017.6
20200401021518 56 79 0.0 0.0 0.00 0.00 0.00 84 1017.5
20200401020018 57 79 0.0 0.0 0.00 0.00 0.00 81 1017.4
20200401014523 58 79 0.0 0.0 0.00 0.00 0.00 76 1017.4
20200401013021 60 79 0.0 0.0 0.00 0.00 0.00 73 1017.1
20200401011522 60 79 0.0 0.0 0.00 0.00 0.00 72 1017.3
20200401010025 61 79 0.0 0.0 0.00 0.03 0.00 66 1017.0
20200401004536 63 79 0.0 0.0 0.00 0.03 0.00 64 1017.1
20200401003016 64 70 0.0 0.0 0.00 0.03 0.00 59 1017.2
20200401001530 65 61 0.0 0.0 0.00 0.03 0.00 58 1017.2
20200401000031 65 352 0.0 0.0 0.00 0.11 0.00 57 1017.1
20200331234537 66 55 0.0 0.0 0.00 0.11 0.00 56 1017.2
20200331233016 65 303 0.0 0.0 0.00 0.11 0.00 56 1017.0
20200331231518 66 10 0.0 0.0 0.00 0.11 0.00 56 1017.0
20200331230023 67 67 0.0 1.0 0.00 0.32 0.00 55 1017.1
20200331224513 67 360 0.0 1.0 0.00 0.32 0.00 54 1017.1
20200331223011 69 288 0.0 1.0 0.00 0.32 0.00 50 1017.1
20200331221519 69 298 0.0 2.0 0.00 0.32 0.00 52 1017.0
20200331220040 69 56 0.0 2.0 0.00 0.33 0.00 51 1017.3
20200331214509 68 332 0.0 5.0 0.00 0.33 0.00 53 1017.2
20200331213016 67 342 0.0 7.0 0.00 0.33 0.00 56 1017.3
20200331211512 66 52 0.0 4.0 0.00 0.33 0.00 58 1017.3
20200331210007 65 5 0.0 1.0 0.00 0.33 0.00 57 1017.7
20200331204515 67 335 0.0 6.0 0.00 0.33 0.00 57 1017.7
20200331203004 65 310 0.0 5.0 0.00 0.33 0.00 59 1018.2
20200331201504 64 13 0.0 4.0 0.00 0.33 0.00 59 1018.2
20200331200004 64 75 0.0 2.0 0.00 0.33 0.00 61 1018.5
20200331194708 64 266 0.0 0.0 0.00 0.33 0.00 62 1018.6
20200331193222 64 255 0.0 7.0 0.00 0.33 0.00 62 1018.8
20200331191749 63 82 1.0 7.0 0.00 0.33 0.00 67 1018.9
20200331190157 63 331 0.0 3.0 0.00 0.61 0.00 64 1019.1
20200331184753 62 44 0.0 10.0 0.00 0.61 0.00 66 1019.2
20200331183118 62 63 0.0 8.0 0.00 0.61 0.00 68 1019.2
20200331181643 61 20 1.0 14.0 0.00 0.61 0.00 68 1019.4
20200331180136 61 291 3.0 11.0 0.00 0.61 0.00 68 1019.6
20200331173131 60 51 0.0 7.0 0.00 0.61 0.00 74 1019.7
20200331171627 60 30 0.0 7.0 0.00 0.61 0.00 73 1019.9
20200331170118 61 34 1.0 11.0 0.00 0.61 0.00 76 1019.9
20200331164717 59 319 0.0 4.0 0.00 0.61 0.00 77 1019.9
20200331163122 58 342 2.0 10.0 0.00 0.61 0.00 77 1020.0
20200331161605 58 36 0.0 6.0 0.00 0.61 0.00 79 1019.8
20200331160113 57 37 1.0 10.0 0.00 0.61 0.00 80 1019.8
20200331154609 57 1 3.0 19.0 0.00 0.61 0.00 79 1019.7
20200331153104 58 16 0.0 5.0 0.00 0.61 0.00 81 1019.4
20200331151618 58 342 0.0 1.0 0.00 0.61 0.00 82 1019.3
20200331150057 56 284 0.0 1.0 0.00 0.61 0.00 84 1019.2
20200331144641 56 28 0.0 7.0 0.00 0.61 0.00 85 1019.3
20200331143126 55 44 0.0 7.0 0.00 0.61 0.00 87 1019.1
20200331141630 55 270 0.0 7.0 0.00 0.61 0.00 87 1018.7
20200331140114 55 285 0.0 5.0 0.00 0.61 0.00 88 1018.6
20200331134558 55 349 0.0 3.0 0.00 0.61 0.00 88 1018.4
20200331133030 55 319 0.0 0.0 0.00 0.61 0.00 89 1018.1
20200331131538 54 281 0.0 5.0 0.00 0.61 0.00 90 1017.8
20200331130033 0 0.0 0.0 0.00 0.61 0.00 1017.8
20200331124534 0 0.0 0.0 0.00 0.61 0.00 1017.5
20200331123030 0 0.0 0.0 0.00 0.61 0.00 1017.5
20200331121534 0 0.0 0.0 0.00 0.61 0.00 1017.6
20200331114505 0 0.0 0.0 0.00 0.61 0.00 1017.0
20200331113216 0 0.0 0.0 0.00 0.61 0.00 1016.9
20200331111650 0 0.0 0.0 0.00 0.61 0.00 1016.7
20200331110141 0 0.0 0.0 0.00 0.61 0.00 1016.3
20200331104641 0 0.0 0.0 0.00 0.61 0.00 1016.2
20200331103126 0 0.0 0.0 0.00 0.61 0.00 1016.4
20200331101605 0 0.0 0.0 0.00 0.61 0.00 1016.1
20200331100120 0 0.0 0.0 0.00 0.61 0.00 1015.6
20200331094555 0 0.0 0.0 0.00 0.61 0.00 1015.4
20200331093108 0 0.0 0.0 0.00 0.61 0.00 1015.0
20200331090102 0 0.0 0.0 0.00 0.61 0.00 1014.7
20200331084615 0 0.0 0.0 0.00 0.61 0.00 1014.3
20200331083019 0 0.0 0.0 0.00 0.61 0.00 1014.0
20200331081546 0 0.0 0.0 0.00 0.61 0.00 1013.6
20200331080013 0 0.0 0.0 0.00 0.61 0.00 1013.2
20200331074527 0 0.0 0.0 0.00 0.61 0.00 1013.3
20200331073016 0 0.0 0.0 0.00 0.61 0.00 1014.2
20200331071504 0 0.0 0.0 0.00 0.61 0.00 1014.4
20200331070252 0 0.0 0.0 0.00 0.61 0.00 1013.9
20200331064726 0 0.0 0.0 0.00 0.61 0.00 1013.9
20200331063114 0 0.0 0.0 0.00 0.61 0.00 1014.3
20200331061701 0 0.0 0.0 0.00 0.61 0.00 1014.6
20200331060150 0 0.0 0.0 0.00 0.61 0.00 1014.5
20200331054620 0 0.0 0.0 0.00 0.61 0.00 1013.8